createdAt,value
2022-12-03T00:00:08.896Z,78.750000
2022-12-03T00:01:00.249Z,78.750000
2022-12-03T00:02:00.351Z,78.750000
2022-12-03T00:03:00.464Z,78.750000
2022-12-03T00:04:00.562Z,56.250000
2022-12-03T00:05:03.701Z,56.250000
2022-12-03T00:06:00.360Z,67.500000
2022-12-03T00:07:00.276Z,67.500000
2022-12-03T00:08:00.459Z,67.500000
2022-12-03T00:09:00.318Z,78.750000
2022-12-03T00:10:03.784Z,78.750000
2022-12-03T00:11:00.320Z,78.750000
2022-12-03T00:12:00.403Z,67.500000
2022-12-03T00:13:00.315Z,67.500000
2022-12-03T00:14:00.389Z,78.750000
2022-12-03T00:15:03.734Z,78.750000
2022-12-03T00:16:00.506Z,78.750000
2022-12-03T00:17:00.362Z,78.750000
2022-12-03T00:18:00.459Z,56.250000
2022-12-03T00:19:00.377Z,56.250000
2022-12-03T00:20:03.808Z,56.250000
2022-12-03T00:21:00.378Z,78.750000
2022-12-03T00:22:00.498Z,78.750000
2022-12-03T00:23:00.402Z,78.750000
2022-12-03T00:24:00.475Z,45.000000
2022-12-03T00:25:03.636Z,45.000000
2022-12-03T00:26:00.474Z,56.250000
2022-12-03T00:27:00.429Z,56.250000
2022-12-03T00:28:00.519Z,56.250000
2022-12-03T00:29:00.440Z,56.250000
2022-12-03T00:30:03.874Z,56.250000
2022-12-03T00:31:00.516Z,56.250000
2022-12-03T00:32:00.511Z,56.250000
2022-12-03T00:33:00.474Z,56.250000
2022-12-03T00:34:00.718Z,56.250000
2022-12-03T00:35:03.682Z,56.250000
2022-12-03T00:36:00.541Z,33.750000
2022-12-03T00:37:00.480Z,33.750000
2022-12-03T00:38:00.550Z,33.750000
2022-12-03T00:39:00.499Z,22.500000
2022-12-03T00:40:03.814Z,22.500000
2022-12-03T00:41:00.485Z,22.500000
2022-12-03T00:42:00.609Z,33.750000
2022-12-03T00:43:00.513Z,33.750000
2022-12-03T00:44:00.603Z,33.750000
2022-12-03T00:45:03.786Z,33.750000
2022-12-03T00:46:00.691Z,33.750000
2022-12-03T00:47:00.724Z,45.000000
2022-12-03T00:48:00.642Z,45.000000
2022-12-03T00:49:00.532Z,67.500000
2022-12-03T00:50:05.594Z,67.500000
2022-12-03T00:51:00.578Z,67.500000
2022-12-03T00:52:00.662Z,45.000000
2022-12-03T00:53:00.688Z,45.000000
2022-12-03T00:54:00.689Z,56.250000
2022-12-03T00:55:03.716Z,56.250000
2022-12-03T00:56:00.668Z,56.250000
2022-12-03T00:57:00.641Z,78.750000
2022-12-03T00:58:00.723Z,78.750000
2022-12-03T00:59:00.633Z,78.750000
2022-12-03T01:00:05.143Z,56.250000
2022-12-03T01:01:00.677Z,56.250000
2022-12-03T01:02:00.833Z,22.500000
2022-12-03T01:03:00.687Z,22.500000
2022-12-03T01:04:00.774Z,22.500000
2022-12-03T01:05:03.856Z,22.500000
2022-12-03T01:06:00.826Z,22.500000
2022-12-03T01:07:00.720Z,22.500000
2022-12-03T01:08:00.832Z,33.750000
2022-12-03T01:09:00.741Z,33.750000
2022-12-03T01:10:04.477Z,45.000000
2022-12-03T01:11:00.727Z,45.000000
2022-12-03T01:12:00.852Z,22.500000
2022-12-03T01:13:00.729Z,22.500000
2022-12-03T01:14:00.802Z,45.000000
2022-12-03T01:15:03.843Z,45.000000
2022-12-03T01:16:00.948Z,45.000000
2022-12-03T01:17:00.769Z,33.750000
2022-12-03T01:18:00.882Z,33.750000
2022-12-03T01:19:00.782Z,33.750000
2022-12-03T01:20:04.150Z,22.500000
2022-12-03T01:21:00.800Z,22.500000
2022-12-03T01:22:00.916Z,22.500000
2022-12-03T01:23:00.806Z,22.500000
2022-12-03T01:24:00.900Z,22.500000
2022-12-03T01:25:03.780Z,22.500000
2022-12-03T01:26:00.904Z,22.500000
2022-12-03T01:27:00.831Z,22.500000
2022-12-03T01:28:00.926Z,22.500000
2022-12-03T01:29:00.852Z,22.500000
2022-12-03T01:30:04.355Z,33.750000
2022-12-03T01:31:00.908Z,33.750000
2022-12-03T01:32:00.954Z,33.750000
2022-12-03T01:33:00.892Z,45.000000
2022-12-03T01:34:01.015Z,45.000000
2022-12-03T01:35:03.779Z,33.750000
2022-12-03T01:36:01.008Z,33.750000
2022-12-03T01:37:00.905Z,33.750000
2022-12-03T01:38:01.045Z,33.750000
2022-12-03T01:39:00.915Z,33.750000
2022-12-03T01:40:04.519Z,33.750000
2022-12-03T01:41:00.916Z,33.750000
2022-12-03T01:42:01.019Z,33.750000
2022-12-03T01:43:00.922Z,45.000000
2022-12-03T01:44:01.022Z,45.000000
2022-12-03T01:45:05.791Z,33.750000
2022-12-03T01:46:01.048Z,33.750000
2022-12-03T01:47:01.089Z,33.750000
2022-12-03T01:48:01.050Z,33.750000
2022-12-03T01:49:00.998Z,33.750000
2022-12-03T01:50:04.228Z,45.000000
2022-12-03T01:51:01.047Z,45.000000
2022-12-03T01:52:01.077Z,45.000000
2022-12-03T01:53:01.001Z,45.000000
2022-12-03T01:54:01.155Z,45.000000
2022-12-03T01:55:04.084Z,56.250000
2022-12-03T01:56:01.102Z,56.250000
2022-12-03T01:57:01.079Z,56.250000
2022-12-03T01:58:01.120Z,67.500000
2022-12-03T01:59:01.066Z,67.500000
2022-12-03T02:00:04.753Z,67.500000
2022-12-03T02:01:01.093Z,67.500000
2022-12-03T02:02:01.256Z,33.750000
2022-12-03T02:03:01.104Z,33.750000
2022-12-03T02:04:01.205Z,33.750000
2022-12-03T02:05:04.162Z,67.500000
2022-12-03T02:06:01.221Z,67.500000
2022-12-03T02:07:01.113Z,45.000000
2022-12-03T02:08:01.315Z,45.000000
2022-12-03T02:09:01.144Z,56.250000
2022-12-03T02:10:04.470Z,56.250000
2022-12-03T02:11:01.263Z,56.250000
2022-12-03T02:12:01.236Z,56.250000
2022-12-03T02:13:01.168Z,56.250000
2022-12-03T02:14:01.248Z,56.250000
2022-12-03T02:15:04.182Z,56.250000
2022-12-03T02:16:00.417Z,56.250000
2022-12-03T02:17:00.191Z,56.250000
2022-12-03T02:18:00.270Z,45.000000
2022-12-03T02:19:00.203Z,45.000000
2022-12-03T02:20:03.825Z,45.000000
2022-12-03T02:21:00.220Z,45.000000
2022-12-03T02:22:00.290Z,45.000000
2022-12-03T02:23:00.211Z,22.500000
2022-12-03T02:24:00.348Z,22.500000
2022-12-03T02:25:03.115Z,22.500000
2022-12-03T02:26:00.368Z,33.750000
2022-12-03T02:27:00.266Z,33.750000
2022-12-03T02:28:00.333Z,33.750000
2022-12-03T02:29:00.277Z,33.750000
2022-12-03T02:30:03.718Z,33.750000
2022-12-03T02:31:00.389Z,33.750000
2022-12-03T02:32:00.445Z,33.750000
2022-12-03T02:33:00.329Z,56.250000
2022-12-03T02:34:00.360Z,56.250000
2022-12-03T02:35:03.676Z,45.000000
2022-12-03T02:36:03.607Z,45.000000
2022-12-03T02:37:00.344Z,45.000000
2022-12-03T02:38:00.437Z,45.000000
2022-12-03T02:39:00.350Z,45.000000
2022-12-03T02:40:05.271Z,33.750000
2022-12-03T02:41:00.369Z,33.750000
2022-12-03T02:42:00.665Z,33.750000
2022-12-03T02:43:00.355Z,33.750000
2022-12-03T02:44:00.470Z,33.750000
2022-12-03T02:45:05.626Z,33.750000
2022-12-03T02:46:00.729Z,22.500000
2022-12-03T02:47:00.471Z,22.500000
2022-12-03T02:48:00.507Z,22.500000
2022-12-03T02:49:00.419Z,56.250000
2022-12-03T02:50:03.840Z,56.250000
2022-12-03T02:51:00.465Z,56.250000
2022-12-03T02:52:00.521Z,56.250000
2022-12-03T02:53:00.448Z,67.500000
2022-12-03T02:54:00.531Z,67.500000
2022-12-03T02:55:03.621Z,45.000000
2022-12-03T02:56:00.577Z,45.000000
2022-12-03T02:57:00.491Z,45.000000
2022-12-03T02:58:00.576Z,22.500000
2022-12-03T02:59:00.490Z,22.500000
2022-12-03T03:00:04.292Z,22.500000
2022-12-03T03:01:00.592Z,33.750000
2022-12-03T03:02:00.613Z,33.750000
2022-12-03T03:03:00.510Z,67.500000
2022-12-03T03:04:00.592Z,67.500000
2022-12-03T03:05:03.761Z,56.250000
2022-12-03T03:06:00.620Z,56.250000
2022-12-03T03:07:00.548Z,56.250000
2022-12-03T03:08:00.754Z,33.750000
2022-12-03T03:09:00.567Z,33.750000
2022-12-03T03:10:04.036Z,33.750000
2022-12-03T03:11:00.578Z,45.000000
2022-12-03T03:12:00.657Z,45.000000
2022-12-03T03:13:00.614Z,45.000000
2022-12-03T03:14:00.740Z,56.250000
2022-12-03T03:15:03.702Z,56.250000
2022-12-03T03:16:00.731Z,45.000000
2022-12-03T03:17:00.629Z,45.000000
2022-12-03T03:18:00.712Z,33.750000
2022-12-03T03:19:00.647Z,33.750000
2022-12-03T03:20:05.209Z,33.750000
2022-12-03T03:21:00.690Z,45.000000
2022-12-03T03:22:00.734Z,45.000000
2022-12-03T03:23:00.682Z,67.500000
2022-12-03T03:24:00.762Z,67.500000
2022-12-03T03:25:03.631Z,67.500000
2022-12-03T03:26:00.782Z,56.250000
2022-12-03T03:27:00.718Z,56.250000
2022-12-03T03:28:00.774Z,45.000000
2022-12-03T03:29:00.720Z,45.000000
2022-12-03T03:30:04.186Z,45.000000
2022-12-03T03:31:00.742Z,45.000000
2022-12-03T03:32:00.879Z,45.000000
2022-12-03T03:33:00.746Z,45.000000
2022-12-03T03:34:00.815Z,22.500000
2022-12-03T03:35:05.451Z,22.500000
2022-12-03T03:36:00.851Z,56.250000
2022-12-03T03:37:00.777Z,56.250000
2022-12-03T03:38:00.882Z,45.000000
2022-12-03T03:39:00.797Z,45.000000
2022-12-03T03:40:03.875Z,45.000000
2022-12-03T03:41:00.813Z,56.250000
2022-12-03T03:42:00.890Z,56.250000
2022-12-03T03:43:00.836Z,56.250000
2022-12-03T03:44:00.957Z,56.250000
2022-12-03T03:45:04.164Z,56.250000
2022-12-03T03:46:01.019Z,56.250000
2022-12-03T03:47:00.862Z,45.000000
2022-12-03T03:48:00.935Z,45.000000
2022-12-03T03:49:00.858Z,33.750000
2022-12-03T03:50:04.404Z,33.750000
2022-12-03T03:51:00.882Z,56.250000
2022-12-03T03:52:00.932Z,56.250000
2022-12-03T03:53:00.899Z,56.250000
2022-12-03T03:54:00.978Z,45.000000
2022-12-03T03:55:04.004Z,45.000000
2022-12-03T03:56:00.993Z,45.000000
2022-12-03T03:57:00.918Z,33.750000
2022-12-03T03:58:00.980Z,33.750000
2022-12-03T03:59:00.909Z,33.750000
2022-12-03T04:00:05.518Z,33.750000
2022-12-03T04:01:00.985Z,22.500000
2022-12-03T04:02:01.055Z,22.500000
2022-12-03T04:03:00.947Z,22.500000
2022-12-03T04:04:01.115Z,33.750000
2022-12-03T04:05:03.910Z,33.750000
2022-12-03T04:06:08.190Z,33.750000
2022-12-03T04:07:00.967Z,45.000000
2022-12-03T04:08:01.241Z,45.000000
2022-12-03T04:09:00.974Z,45.000000
2022-12-03T04:10:04.436Z,56.250000
2022-12-03T04:11:00.999Z,56.250000
2022-12-03T04:12:01.082Z,22.500000
2022-12-03T04:13:01.003Z,22.500000
2022-12-03T04:14:01.140Z,22.500000
2022-12-03T04:15:03.977Z,22.500000
2022-12-03T04:16:01.088Z,22.500000
2022-12-03T04:17:01.162Z,56.250000
2022-12-03T04:18:01.149Z,56.250000
2022-12-03T04:19:01.055Z,56.250000
2022-12-03T04:20:04.539Z,45.000000
2022-12-03T04:21:01.095Z,45.000000
2022-12-03T04:22:01.118Z,45.000000
2022-12-03T04:23:01.076Z,45.000000
2022-12-03T04:24:01.153Z,22.500000
2022-12-03T04:25:04.076Z,22.500000
2022-12-03T04:26:01.174Z,22.500000
2022-12-03T04:27:01.124Z,45.000000
2022-12-03T04:28:01.171Z,45.000000
2022-12-03T04:29:01.115Z,45.000000
2022-12-03T04:30:06.300Z,33.750000
2022-12-03T04:31:01.199Z,33.750000
2022-12-03T04:32:01.265Z,33.750000
2022-12-03T04:33:01.156Z,33.750000
2022-12-03T04:34:01.276Z,33.750000
2022-12-03T04:35:04.452Z,33.750000
2022-12-03T04:36:00.395Z,33.750000
2022-12-03T04:37:00.185Z,45.000000
2022-12-03T04:38:00.296Z,45.000000
2022-12-03T04:39:00.211Z,45.000000
2022-12-03T04:40:03.848Z,90.000000
2022-12-03T04:41:00.219Z,90.000000
2022-12-03T04:42:00.308Z,101.250000
2022-12-03T04:43:00.217Z,101.250000
2022-12-03T04:44:00.321Z,101.250000
2022-12-03T04:45:03.111Z,45.000000
2022-12-03T04:46:00.345Z,45.000000
2022-12-03T04:47:00.260Z,22.500000
2022-12-03T04:48:00.349Z,22.500000
2022-12-03T04:49:00.256Z,22.500000
2022-12-03T04:50:03.875Z,67.500000
2022-12-03T04:51:00.290Z,67.500000
2022-12-03T04:52:00.369Z,33.750000
2022-12-03T04:53:00.275Z,33.750000
2022-12-03T04:54:00.402Z,33.750000
2022-12-03T04:55:03.612Z,78.750000
2022-12-03T04:56:00.425Z,78.750000
2022-12-03T04:57:00.327Z,90.000000
2022-12-03T04:58:00.393Z,90.000000
2022-12-03T04:59:00.320Z,78.750000
2022-12-03T05:00:04.145Z,78.750000
2022-12-03T05:01:00.368Z,78.750000
2022-12-03T05:02:00.548Z,0.000000
2022-12-03T05:03:00.465Z,0.000000
2022-12-03T05:04:00.462Z,0.000000
2022-12-03T05:05:03.666Z,45.000000
2022-12-03T05:06:00.482Z,45.000000
2022-12-03T05:07:00.404Z,45.000000
2022-12-03T05:08:00.538Z,45.000000
2022-12-03T05:09:00.434Z,45.000000
2022-12-03T05:10:03.850Z,45.000000
2022-12-03T05:11:00.418Z,45.000000
2022-12-03T05:12:00.517Z,45.000000
2022-12-03T05:13:00.423Z,45.000000
2022-12-03T05:14:00.544Z,45.000000
2022-12-03T05:15:03.614Z,33.750000
2022-12-03T05:16:00.506Z,33.750000
2022-12-03T05:17:00.470Z,22.500000
2022-12-03T05:18:00.551Z,22.500000
2022-12-03T05:19:00.461Z,22.500000
2022-12-03T05:20:03.903Z,22.500000
2022-12-03T05:21:00.485Z,22.500000
2022-12-03T05:22:00.683Z,33.750000
2022-12-03T05:23:00.484Z,33.750000
2022-12-03T05:24:00.577Z,33.750000
2022-12-03T05:25:05.279Z,22.500000
2022-12-03T05:26:00.599Z,22.500000
2022-12-03T05:27:00.531Z,22.500000
2022-12-03T05:28:00.589Z,22.500000
2022-12-03T05:29:00.527Z,22.500000
2022-12-03T05:30:03.975Z,22.500000
2022-12-03T05:31:00.625Z,22.500000
2022-12-03T05:32:00.621Z,33.750000
2022-12-03T05:33:00.572Z,33.750000
2022-12-03T05:34:00.642Z,33.750000
2022-12-03T05:35:04.863Z,22.500000
2022-12-03T05:36:00.677Z,22.500000
2022-12-03T05:37:00.616Z,22.500000
2022-12-03T05:38:00.701Z,78.750000
2022-12-03T05:39:00.606Z,78.750000
2022-12-03T05:40:05.127Z,67.500000
2022-12-03T05:41:00.637Z,67.500000
2022-12-03T05:42:00.715Z,33.750000
2022-12-03T05:43:00.662Z,33.750000
2022-12-03T05:44:00.706Z,33.750000
2022-12-03T05:45:03.752Z,56.250000
2022-12-03T05:46:00.802Z,56.250000
2022-12-03T05:47:00.657Z,56.250000
2022-12-03T05:48:00.745Z,22.500000
2022-12-03T05:49:00.680Z,22.500000
2022-12-03T05:50:04.083Z,22.500000
2022-12-03T05:51:00.689Z,22.500000
2022-12-03T05:52:00.771Z,22.500000
2022-12-03T05:53:00.682Z,22.500000
2022-12-03T05:54:00.859Z,22.500000
2022-12-03T05:55:03.752Z,22.500000
2022-12-03T05:56:00.796Z,22.500000
2022-12-03T05:57:00.748Z,22.500000
2022-12-03T05:58:00.792Z,11.250000
2022-12-03T05:59:00.749Z,11.250000
2022-12-03T06:00:05.497Z,45.000000
2022-12-03T06:01:00.815Z,45.000000
2022-12-03T06:02:00.943Z,45.000000
2022-12-03T06:03:00.957Z,56.250000
2022-12-03T06:04:01.019Z,56.250000
2022-12-03T06:05:04.110Z,45.000000
2022-12-03T06:06:00.960Z,45.000000
2022-12-03T06:07:00.847Z,45.000000
2022-12-03T06:08:00.981Z,22.500000
2022-12-03T06:09:01.037Z,22.500000
2022-12-03T06:10:05.399Z,22.500000
2022-12-03T06:11:00.871Z,33.750000
2022-12-03T06:12:00.984Z,33.750000
2022-12-03T06:13:00.905Z,33.750000
2022-12-03T06:14:01.085Z,33.750000
2022-12-03T06:15:04.079Z,33.750000
2022-12-03T06:16:01.066Z,33.750000
2022-12-03T06:17:00.932Z,33.750000
2022-12-03T06:18:01.034Z,33.750000
2022-12-03T06:19:01.033Z,33.750000
2022-12-03T06:20:05.775Z,33.750000
2022-12-03T06:21:00.958Z,45.000000
2022-12-03T06:22:01.038Z,45.000000
2022-12-03T06:23:00.972Z,22.500000
2022-12-03T06:24:01.082Z,22.500000
2022-12-03T06:25:07.095Z,22.500000
2022-12-03T06:26:01.075Z,22.500000
2022-12-03T06:27:01.011Z,22.500000
2022-12-03T06:28:01.057Z,22.500000
2022-12-03T06:29:01.011Z,22.500000
2022-12-03T06:30:04.693Z,22.500000
2022-12-03T06:31:01.091Z,33.750000
2022-12-03T06:32:01.082Z,33.750000
2022-12-03T06:33:01.052Z,22.500000
2022-12-03T06:34:01.180Z,22.500000
2022-12-03T06:35:04.550Z,45.000000
2022-12-03T06:36:01.159Z,45.000000
2022-12-03T06:37:01.068Z,45.000000
2022-12-03T06:38:01.144Z,67.500000
2022-12-03T06:39:01.189Z,67.500000
2022-12-03T06:40:05.540Z,67.500000
2022-12-03T06:41:01.103Z,78.750000
2022-12-03T06:42:01.200Z,78.750000
2022-12-03T06:43:01.099Z,78.750000
2022-12-03T06:44:01.148Z,33.750000
2022-12-03T06:45:05.505Z,33.750000
2022-12-03T06:46:01.325Z,90.000000
2022-12-03T06:47:01.245Z,90.000000
2022-12-03T06:48:01.239Z,45.000000
2022-12-03T06:49:01.137Z,45.000000
2022-12-03T06:50:06.341Z,45.000000
2022-12-03T06:51:01.155Z,33.750000
2022-12-03T06:52:01.218Z,33.750000
2022-12-03T06:53:01.150Z,90.000000
2022-12-03T06:54:01.447Z,90.000000
2022-12-03T06:55:04.255Z,90.000000
2022-12-03T06:56:00.263Z,90.000000
2022-12-03T06:57:00.213Z,90.000000
2022-12-03T06:58:00.239Z,33.750000
2022-12-03T06:59:00.194Z,33.750000
2022-12-03T07:00:05.310Z,33.750000
2022-12-03T07:01:00.237Z,22.500000
2022-12-03T07:02:00.373Z,22.500000
2022-12-03T07:03:00.316Z,33.750000
2022-12-03T07:04:00.309Z,33.750000
2022-12-03T07:05:03.624Z,33.750000
2022-12-03T07:06:00.377Z,45.000000
2022-12-03T07:07:00.249Z,45.000000
2022-12-03T07:08:00.428Z,45.000000
2022-12-03T07:09:00.276Z,45.000000
2022-12-03T07:10:05.739Z,45.000000
2022-12-03T07:11:00.290Z,33.750000
2022-12-03T07:12:00.402Z,33.750000
2022-12-03T07:13:00.333Z,33.750000
2022-12-03T07:14:05.030Z,22.500000
2022-12-03T07:15:05.069Z,22.500000
2022-12-03T07:16:00.415Z,22.500000
2022-12-03T07:17:00.335Z,22.500000
2022-12-03T07:18:00.411Z,22.500000
2022-12-03T07:19:00.339Z,67.500000
2022-12-03T07:20:03.862Z,67.500000
2022-12-03T07:21:00.369Z,67.500000
2022-12-03T07:22:00.446Z,67.500000
2022-12-03T07:23:00.373Z,67.500000
2022-12-03T07:24:00.485Z,22.500000
2022-12-03T07:25:03.631Z,22.500000
2022-12-03T07:26:00.455Z,90.000000
2022-12-03T07:27:00.411Z,90.000000
2022-12-03T07:28:00.478Z,90.000000
2022-12-03T07:29:00.447Z,67.500000
2022-12-03T07:30:03.906Z,67.500000
2022-12-03T07:31:00.499Z,90.000000
2022-12-03T07:32:00.497Z,90.000000
2022-12-03T07:33:00.465Z,90.000000
2022-12-03T07:34:00.523Z,33.750000
2022-12-03T07:35:03.755Z,33.750000
2022-12-03T07:36:00.572Z,33.750000
2022-12-03T07:37:00.479Z,33.750000
2022-12-03T07:38:00.538Z,33.750000
2022-12-03T07:39:00.503Z,22.500000
2022-12-03T07:40:04.257Z,22.500000
2022-12-03T07:41:00.497Z,22.500000
2022-12-03T07:42:00.597Z,45.000000
2022-12-03T07:43:00.517Z,45.000000
2022-12-03T07:44:00.607Z,56.250000
2022-12-03T07:45:04.839Z,56.250000
2022-12-03T07:46:00.590Z,56.250000
2022-12-03T07:47:00.619Z,22.500000
2022-12-03T07:48:00.631Z,22.500000
2022-12-03T07:49:00.605Z,33.750000
2022-12-03T07:50:05.061Z,33.750000
2022-12-03T07:51:00.582Z,33.750000
2022-12-03T07:52:00.638Z,22.500000
2022-12-03T07:53:00.585Z,22.500000
2022-12-03T07:54:00.693Z,33.750000
2022-12-03T07:55:04.926Z,33.750000
2022-12-03T07:56:00.665Z,33.750000
2022-12-03T07:57:01.839Z,45.000000
2022-12-03T07:58:00.690Z,45.000000
2022-12-03T07:59:00.608Z,45.000000
2022-12-03T08:00:04.509Z,33.750000
2022-12-03T08:01:00.703Z,33.750000
2022-12-03T08:02:00.758Z,33.750000
2022-12-03T08:03:00.647Z,33.750000
2022-12-03T08:04:00.698Z,22.500000
2022-12-03T08:05:04.864Z,22.500000
2022-12-03T08:06:00.761Z,33.750000
2022-12-03T08:07:00.663Z,33.750000
2022-12-03T08:08:00.785Z,33.750000
2022-12-03T08:09:00.695Z,11.250000
2022-12-03T08:10:05.637Z,11.250000
2022-12-03T08:11:00.694Z,11.250000
2022-12-03T08:12:00.829Z,11.250000
2022-12-03T08:13:00.700Z,11.250000
2022-12-03T08:14:00.804Z,33.750000
2022-12-03T08:15:03.901Z,33.750000
2022-12-03T08:16:00.924Z,33.750000
2022-12-03T08:17:00.787Z,33.750000
2022-12-03T08:18:00.871Z,33.750000
2022-12-03T08:19:00.763Z,33.750000
2022-12-03T08:20:05.320Z,33.750000
2022-12-03T08:21:00.792Z,33.750000
2022-12-03T08:22:01.560Z,33.750000
2022-12-03T08:23:00.782Z,33.750000
2022-12-03T08:24:01.015Z,22.500000
2022-12-03T08:25:03.812Z,22.500000
2022-12-03T08:26:00.873Z,22.500000
2022-12-03T08:27:00.817Z,33.750000
2022-12-03T08:28:00.877Z,33.750000
2022-12-03T08:29:00.808Z,33.750000
2022-12-03T08:30:04.417Z,33.750000
2022-12-03T08:31:00.847Z,33.750000
2022-12-03T08:32:00.987Z,33.750000
2022-12-03T08:33:00.913Z,33.750000
2022-12-03T08:34:00.929Z,33.750000
2022-12-03T08:35:03.900Z,45.000000
2022-12-03T08:36:00.996Z,45.000000
2022-12-03T08:37:00.888Z,22.500000
2022-12-03T08:38:00.967Z,22.500000
2022-12-03T08:39:00.899Z,33.750000
2022-12-03T08:40:04.484Z,33.750000
2022-12-03T08:41:00.921Z,33.750000
2022-12-03T08:42:01.042Z,22.500000
2022-12-03T08:43:00.940Z,22.500000
2022-12-03T08:44:01.001Z,22.500000
2022-12-03T08:45:04.138Z,22.500000
2022-12-03T08:46:01.041Z,22.500000
2022-12-03T08:47:00.938Z,22.500000
2022-12-03T08:48:02.160Z,22.500000
2022-12-03T08:49:00.970Z,22.500000
2022-12-03T08:50:04.748Z,33.750000
2022-12-03T08:51:00.986Z,33.750000
2022-12-03T08:52:01.086Z,33.750000
2022-12-03T08:53:00.989Z,56.250000
2022-12-03T08:54:02.357Z,56.250000
2022-12-03T08:55:03.954Z,56.250000
2022-12-03T08:56:01.705Z,56.250000
2022-12-03T08:57:01.023Z,56.250000
2022-12-03T08:58:01.820Z,56.250000
2022-12-03T08:59:01.021Z,56.250000
2022-12-03T09:00:06.238Z,56.250000
2022-12-03T09:01:01.090Z,56.250000
2022-12-03T09:02:01.135Z,45.000000
2022-12-03T09:03:01.080Z,45.000000
2022-12-03T09:04:01.915Z,45.000000
2022-12-03T09:05:05.788Z,45.000000
2022-12-03T09:06:01.222Z,45.000000
2022-12-03T09:07:01.099Z,45.000000
2022-12-03T09:08:01.276Z,33.750000
2022-12-03T09:09:06.358Z,33.750000
2022-12-03T09:10:04.424Z,22.500000
2022-12-03T09:11:01.144Z,22.500000
2022-12-03T09:12:01.252Z,22.500000
2022-12-03T09:13:01.139Z,56.250000
2022-12-03T09:14:01.198Z,56.250000
2022-12-03T09:15:05.384Z,33.750000
2022-12-03T09:16:01.212Z,33.750000
2022-12-03T09:17:01.228Z,33.750000
2022-12-03T09:18:01.278Z,33.750000
2022-12-03T09:19:01.188Z,33.750000
2022-12-03T09:20:03.840Z,33.750000
2022-12-03T09:21:00.219Z,33.750000
2022-12-03T09:22:00.287Z,33.750000
2022-12-03T09:23:00.209Z,22.500000
2022-12-03T09:24:00.342Z,22.500000
2022-12-03T09:25:04.625Z,33.750000
2022-12-03T09:26:00.320Z,33.750000
2022-12-03T09:27:00.256Z,33.750000
2022-12-03T09:28:00.346Z,33.750000
2022-12-03T09:29:00.271Z,33.750000
2022-12-03T09:30:04.829Z,33.750000
2022-12-03T09:31:00.291Z,45.000000
2022-12-03T09:32:00.404Z,45.000000
2022-12-03T09:33:00.313Z,45.000000
2022-12-03T09:34:00.363Z,45.000000
2022-12-03T09:35:04.845Z,33.750000
2022-12-03T09:36:00.430Z,33.750000
2022-12-03T09:37:00.312Z,33.750000
2022-12-03T09:38:00.387Z,33.750000
2022-12-03T09:39:00.337Z,33.750000
2022-12-03T09:40:05.085Z,33.750000
2022-12-03T09:41:00.345Z,45.000000
2022-12-03T09:42:00.459Z,45.000000
2022-12-03T09:43:00.371Z,45.000000
2022-12-03T09:44:04.880Z,45.000000
2022-12-03T09:45:04.953Z,45.000000
2022-12-03T09:46:00.513Z,67.500000
2022-12-03T09:47:00.398Z,67.500000
2022-12-03T09:48:00.503Z,56.250000
2022-12-03T09:49:00.416Z,56.250000
2022-12-03T09:50:03.919Z,56.250000
2022-12-03T09:51:00.464Z,56.250000
2022-12-03T09:52:00.483Z,56.250000
2022-12-03T09:53:00.434Z,22.500000
2022-12-03T09:54:00.530Z,22.500000
2022-12-03T09:55:03.742Z,45.000000
2022-12-03T09:56:00.543Z,45.000000
2022-12-03T09:57:00.476Z,78.750000
2022-12-03T09:58:00.532Z,78.750000
2022-12-03T09:59:00.465Z,78.750000
2022-12-03T10:00:06.981Z,45.000000
2022-12-03T10:01:00.627Z,45.000000
2022-12-03T10:02:00.684Z,45.000000
2022-12-03T10:03:00.525Z,56.250000
2022-12-03T10:04:00.637Z,56.250000
2022-12-03T10:05:03.950Z,56.250000
2022-12-03T10:06:00.623Z,22.500000
2022-12-03T10:07:00.559Z,22.500000
2022-12-03T10:08:00.694Z,22.500000
2022-12-03T10:09:00.555Z,22.500000
2022-12-03T10:10:04.003Z,22.500000
2022-12-03T10:11:00.606Z,67.500000
2022-12-03T10:12:00.658Z,67.500000
2022-12-03T10:13:00.581Z,67.500000
2022-12-03T10:14:00.635Z,67.500000
2022-12-03T10:15:04.829Z,67.500000
2022-12-03T10:16:00.675Z,45.000000
2022-12-03T10:17:00.809Z,45.000000
2022-12-03T10:18:00.677Z,56.250000
2022-12-03T10:19:00.619Z,56.250000
2022-12-03T10:20:05.046Z,56.250000
2022-12-03T10:21:00.637Z,78.750000
2022-12-03T10:22:00.708Z,78.750000
2022-12-03T10:23:00.683Z,33.750000
2022-12-03T10:24:00.732Z,33.750000
2022-12-03T10:25:03.659Z,33.750000
2022-12-03T10:26:00.724Z,90.000000
2022-12-03T10:27:00.688Z,90.000000
2022-12-03T10:28:00.745Z,90.000000
2022-12-03T10:29:00.700Z,90.000000
2022-12-03T10:30:04.190Z,90.000000
2022-12-03T10:31:00.779Z,56.250000
2022-12-03T10:32:00.760Z,56.250000
2022-12-03T10:33:00.704Z,56.250000
2022-12-03T10:34:00.782Z,56.250000
2022-12-03T10:35:03.811Z,56.250000
2022-12-03T10:36:00.807Z,56.250000
2022-12-03T10:37:00.717Z,56.250000
2022-12-03T10:38:00.814Z,56.250000
2022-12-03T10:39:00.773Z,45.000000
2022-12-03T10:40:05.236Z,45.000000
2022-12-03T10:41:00.750Z,22.500000
2022-12-03T10:42:00.837Z,22.500000
2022-12-03T10:43:00.759Z,45.000000
2022-12-03T10:44:00.817Z,45.000000
2022-12-03T10:45:04.236Z,45.000000
2022-12-03T10:46:04.283Z,33.750000
2022-12-03T10:47:00.988Z,33.750000
2022-12-03T10:48:00.866Z,33.750000
2022-12-03T10:49:00.809Z,56.250000
2022-12-03T10:50:04.304Z,56.250000
2022-12-03T10:51:00.831Z,33.750000
2022-12-03T10:52:00.914Z,33.750000
2022-12-03T10:53:00.818Z,56.250000
2022-12-03T10:54:00.938Z,56.250000
2022-12-03T10:55:07.421Z,56.250000
2022-12-03T10:56:00.923Z,67.500000
2022-12-03T10:57:00.869Z,67.500000
2022-12-03T10:58:00.983Z,67.500000
2022-12-03T10:59:00.860Z,90.000000
2022-12-03T11:00:04.195Z,90.000000
2022-12-03T11:01:00.987Z,90.000000
2022-12-03T11:02:01.116Z,90.000000
2022-12-03T11:03:00.932Z,90.000000
2022-12-03T11:04:01.110Z,90.000000
2022-12-03T11:05:05.715Z,90.000000
2022-12-03T11:06:01.012Z,56.250000
2022-12-03T11:07:00.954Z,56.250000
2022-12-03T11:08:01.072Z,56.250000
2022-12-03T11:09:06.963Z,33.750000
2022-12-03T11:10:06.835Z,33.750000
2022-12-03T11:11:01.021Z,33.750000
2022-12-03T11:12:01.059Z,33.750000
2022-12-03T11:13:00.994Z,33.750000
2022-12-03T11:14:01.071Z,45.000000
2022-12-03T11:15:04.189Z,45.000000
2022-12-03T11:16:01.151Z,22.500000
2022-12-03T11:17:01.017Z,22.500000
2022-12-03T11:18:01.123Z,22.500000
2022-12-03T11:19:01.036Z,56.250000
2022-12-03T11:20:04.574Z,56.250000
2022-12-03T11:21:01.060Z,56.250000
2022-12-03T11:22:01.150Z,45.000000
2022-12-03T11:23:01.058Z,45.000000
2022-12-03T11:24:01.135Z,45.000000